Time;durP1;ratioP1;P1;durP2;ratioP2;P2;SDS_P1;SDS_P2;PMS_P1;PMS_P2;Temp;Humidity;BMP_temperature;BMP_pressure;BME280_temperature;BME280_humidity;BME280_pressure;Samples;Min_cycle;Max_cycle;Signal;HPM_P1;HPM_P2
2022/07/03 00:00:39;;;;;;;1.20;1.05;;;;;;;19.10;58.57;96960.88;6275301;23;20079;-80
2022/07/03 00:03:29;;;;;;;1.08;1.08;;;;;;;19.06;59.90;96963.16;6247828;23;20024;-79
2022/07/03 00:09:12;;;;;;;1.67;1.17;;;;;;;19.01;59.58;96962.25;6248694;22;20023;-78
2022/07/03 00:12:36;;;;;;;1.40;1.30;;;;;;;19.01;64.79;96959.59;6249340;23;20026;-78
2022/07/03 00:15:29;;;;;;;1.58;1.23;;;;;;;18.99;63.55;96948.44;6247920;23;20027;-79
2022/07/03 00:18:04;;;;;;;2.30;1.20;;;;;;;18.91;59.93;96952.22;6222681;23;20021;-78
2022/07/03 00:37:35;;;;;;;1.83;1.35;;;;;;;18.71;61.65;96952.47;6271416;23;20047;-81
2022/07/03 01:44:28;;;;;;;1.70;1.60;;;;;;;18.16;64.74;96940.19;5036629;28;20061;-78
2022/07/03 02:28:42;;;;;;;2.40;2.00;;;;;;;18.05;59.97;96901.31;5013170;28;20049;-79
2022/07/03 03:20:22;;;;;;;1.58;1.40;;;;;;;17.53;61.52;96922.75;5056514;28;20061;-80
2022/07/03 04:07:57;;;;;;;1.88;1.77;;;;;;;16.85;63.89;96955.94;5014539;28;20053;-79
2022/07/03 04:10:34;;;;;;;2.47;1.80;;;;;;;16.83;63.86;96950.06;5015379;28;20061;-78
2022/07/03 04:13:10;;;;;;;2.35;2.00;;;;;;;16.86;67.98;96957.56;5015168;28;20050;-79
2022/07/03 04:15:45;;;;;;;2.65;1.63;;;;;;;16.88;67.48;96966.06;4998877;28;20058;-78
2022/07/03 04:18:36;;;;;;;1.63;1.45;;;;;;;16.88;65.50;96955.53;5015115;28;20080;-77
2022/07/03 04:38:39;;;;;;;2.65;1.83;;;;;;;16.90;65.24;96960.56;5054385;28;20029;-80
2022/07/03 04:49:17;;;;;;;2.17;1.92;;;;;;;16.89;68.63;96964.22;5045021;28;20068;-78
2022/07/03 04:52:17;;;;;;;2.13;1.80;;;;;;;16.96;69.47;96962.34;5055518;28;20117;-81
2022/07/03 05:11:45;;;;;;;2.35;2.10;;;;;;;17.09;74.21;96977.28;5050667;28;20064;-80
2022/07/03 05:14:17;;;;;;;2.38;1.60;;;;;;;17.12;69.54;96976.03;5032170;28;20124;-80
2022/07/03 05:16:44;;;;;;;1.60;1.42;;;;;;;17.16;68.80;96978.03;5034151;28;20108;-79
2022/07/03 05:19:14;;;;;;;2.67;1.65;;;;;;;17.22;71.96;96981.66;5033856;28;20084;-80
2022/07/03 05:21:41;;;;;;;1.58;1.48;;;;;;;17.25;69.27;96987.31;5032512;28;20503;-79
2022/07/03 05:24:09;;;;;;;1.65;1.42;;;;;;;17.27;69.10;96985.25;5033445;28;20104;-78
2022/07/03 05:26:39;;;;;;;1.48;1.20;;;;;;;17.30;68.08;96990.09;5033528;28;20049;-79
2022/07/03 05:29:06;;;;;;;2.85;1.63;;;;;;;17.38;70.62;96990.84;5033589;28;20062;-79
2022/07/03 05:31:34;;;;;;;1.33;1.23;;;;;;;17.40;67.66;96983.53;5033647;28;20113;-80
2022/07/03 05:34:02;;;;;;;1.58;1.48;;;;;;;17.39;67.04;96987.19;5033626;28;20057;-80
2022/07/03 05:36:31;;;;;;;3.83;1.75;;;;;;;17.40;66.61;96989.59;5033951;28;20460;-80
2022/07/03 05:41:45;;;;;;;2.45;1.30;;;;;;;17.48;66.45;96991.19;5032339;28;20088;-81
2022/07/03 05:44:12;;;;;;;1.50;1.40;;;;;;;17.52;66.41;96997.63;5034621;28;20053;-81
2022/07/03 05:46:40;;;;;;;1.70;1.60;;;;;;;17.55;65.97;96991.91;5035821;28;20127;-82
2022/07/03 05:49:07;;;;;;;2.58;1.33;;;;;;;17.59;65.81;96985.19;5036738;28;20069;-80
2022/07/03 05:51:36;;;;;;;1.98;1.70;;;;;;;17.65;65.90;96996.72;5036418;28;20053;-79
2022/07/03 05:54:05;;;;;;;3.50;1.80;;;;;;;17.69;66.59;96992.63;5036677;28;20049;-78
2022/07/03 05:56:33;;;;;;;1.55;1.45;;;;;;;17.76;67.81;97003.13;5037184;28;20045;-79
2022/07/03 05:59:00;;;;;;;1.42;1.33;;;;;;;17.81;66.69;96996.16;5033758;28;20499;-80
2022/07/03 06:01:28;;;;;;;3.17;1.38;;;;;;;17.87;66.22;96995.31;5027733;28;20088;-80
2022/07/03 06:03:56;;;;;;;3.00;1.50;;;;;;;17.92;65.78;96992.81;5027873;28;20144;-79
2022/07/03 06:06:24;;;;;;;1.48;1.30;;;;;;;17.98;65.80;96996.44;5031563;28;20050;-79
2022/07/03 06:08:53;;;;;;;2.40;1.35;;;;;;;18.07;69.49;97000.38;5037090;28;20437;-80
2022/07/03 06:11:21;;;;;;;4.78;1.85;;;;;;;18.14;66.69;96999.50;5036907;28;20049;-80
2022/07/03 06:13:48;;;;;;;2.53;1.35;;;;;;;18.20;68.25;96998.63;5036838;28;20102;-80
2022/07/03 06:16:16;;;;;;;2.65;1.55;;;;;;;18.28;70.04;96998.34;5030615;28;20077;-79
2022/07/03 06:18:44;;;;;;;3.10;1.50;;;;;;;18.35;72.09;96999.06;5016537;28;20134;-80
2022/07/03 06:21:11;;;;;;;2.97;1.58;;;;;;;18.41;71.49;97000.84;5019701;28;20049;-80
2022/07/03 06:23:39;;;;;;;2.10;1.90;;;;;;;18.48;73.00;97001.53;5029468;28;20042;-80
2022/07/03 06:26:20;;;;;;;1.63;1.52;;;;;;;18.55;74.35;97006.75;5031958;28;20052;-79
2022/07/03 06:28:47;;;;;;;2.10;1.90;;;;;;;18.60;74.35;97008.72;5037084;28;20046;-79
2022/07/03 06:31:15;;;;;;;2.53;1.42;;;;;;;18.64;71.71;97001.97;5036254;28;20685;-78
2022/07/03 06:33:43;;;;;;;2.03;1.50;;;;;;;18.69;70.54;97002.91;5026195;28;20054;-80
2022/07/03 06:36:11;;;;;;;1.30;1.20;;;;;;;18.77;70.44;97003.63;5031927;28;20562;-80
2022/07/03 06:41:48;;;;;;;2.03;1.92;;;;;;;18.92;72.71;97007.50;5279861;22;20044;-79
2022/07/03 06:44:26;;;;;;;2.40;1.80;;;;;;;18.99;73.14;97007.41;5021294;28;20034;-79
2022/07/03 06:47:02;;;;;;;3.65;1.77;;;;;;;19.07;70.05;97001.00;5017911;28;20090;-78
2022/07/03 06:49:55;;;;;;;2.15;1.30;;;;;;;19.18;69.49;96999.44;5017875;28;20065;-80
2022/07/03 07:01:28;;;;;;;0.95;0.93;;;;;;;19.64;66.14;96996.03;5035978;28;20053;-79
2022/07/03 07:06:54;;;;;;;0.98;0.98;;;;;;;19.91;63.74;97000.88;5037220;28;20042;-78
2022/07/03 07:09:22;;;;;;;1.20;1.20;;;;;;;20.04;65.70;97002.50;5035894;28;20050;-78
2022/07/03 07:11:50;;;;;;;1.45;1.15;;;;;;;20.16;62.84;97000.66;5010381;28;20082;-78
2022/07/03 07:14:54;;;;;;;1.88;0.90;;;;;;;20.31;63.33;97006.25;5005786;28;20496;-82
2022/07/03 07:17:31;;;;;;;1.67;0.90;;;;;;;20.46;63.96;97010.25;5018246;28;20480;-82
2022/07/03 07:20:19;;;;;;;1.52;1.00;;;;;;;20.57;62.18;97007.59;5034306;28;20041;-82
2022/07/03 07:22:51;;;;;;;0.97;0.97;;;;;;;20.71;62.66;97002.81;4981296;28;20512;-81
2022/07/03 07:25:20;;;;;;;0.80;0.80;;;;;;;20.78;63.17;97008.00;4990993;28;20054;-81
2022/07/03 07:27:48;;;;;;;2.10;0.80;;;;;;;20.86;62.33;97004.13;4977734;28;20591;-81
2022/07/03 07:30:16;;;;;;;1.45;1.05;;;;;;;20.93;63.80;97010.91;4972153;28;20500;-82
2022/07/03 07:32:45;;;;;;;2.42;0.85;;;;;;;20.99;63.10;97009.97;4972857;28;20047;-82
2022/07/03 07:35:19;;;;;;;0.82;0.82;;;;;;;21.06;60.74;97014.31;4973239;28;20106;-81
2022/07/03 07:37:48;;;;;;;1.25;1.10;;;;;;;21.11;62.79;97007.25;4972578;28;20078;-82
2022/07/03 07:40:16;;;;;;;1.42;1.05;;;;;;;21.15;62.27;97007.59;4975861;28;20046;-82
2022/07/03 07:42:43;;;;;;;1.27;1.17;;;;;;;21.19;62.46;97012.16;4994714;28;20101;-81
2022/07/03 07:45:11;;;;;;;0.80;0.80;;;;;;;21.23;61.79;97007.19;4994787;28;20047;-81
2022/07/03 07:47:39;;;;;;;1.33;1.15;;;;;;;21.29;62.21;97008.88;4994332;28;20082;-81
2022/07/03 07:50:09;;;;;;;0.90;0.90;;;;;;;21.37;61.59;97013.78;5003780;28;20045;-81
2022/07/03 07:52:37;;;;;;;0.70;0.70;;;;;;;21.46;59.92;97018.75;5016772;28;20111;-81
2022/07/03 07:55:06;;;;;;;0.80;0.68;;;;;;;21.56;60.20;97019.72;5014012;28;20069;-81
2022/07/03 07:57:37;;;;;;;2.10;0.68;;;;;;;21.68;58.00;97022.25;4999938;28;20073;-81
2022/07/03 08:00:07;;;;;;;2.15;1.33;;;;;;;21.75;57.78;97022.09;4994295;28;20132;-81
2022/07/03 08:05:47;;;;;;;0.60;0.60;;;;;;;21.92;59.96;97017.56;4979514;28;20070;-82
2022/07/03 08:11:04;;;;;;;0.60;0.60;;;;;;;22.11;58.14;97015.44;5550999;23;20304;-80
2022/07/03 08:13:35;;;;;;;0.93;0.90;;;;;;;22.19;58.12;97015.03;5010373;28;20054;-80
2022/07/03 08:16:05;;;;;;;;;;;;;;;22.26;58.14;97011.41;5019079;28;20057;-77
2022/07/03 08:18:33;;;;;;;1.38;0.60;;;;;;;22.30;57.48;97012.53;5013586;28;20016;-77
2022/07/03 08:21:02;;;;;;;0.90;0.75;;;;;;;22.33;55.61;97006.72;5012898;28;20137;-76
2022/07/03 08:23:29;;;;;;;1.13;0.80;;;;;;;22.40;55.45;97002.03;5013590;28;20129;-77
2022/07/03 08:25:57;;;;;;;0.40;0.40;;;;;;;22.44;53.19;97013.78;5013517;28;20053;-77
2022/07/03 08:28:25;;;;;;;0.77;0.35;;;;;;;22.49;52.20;97016.47;5013496;28;20050;-79
2022/07/03 08:30:53;;;;;;;0.95;0.68;;;;;;;22.56;51.10;97013.63;5012520;28;20046;-79
2022/07/03 08:33:20;;;;;;;1.40;0.70;;;;;;;22.65;51.07;97014.00;5012867;28;20049;-79
2022/07/03 08:35:48;;;;;;;1.73;0.45;;;;;;;22.72;50.38;97010.13;4993209;28;20058;-78
2022/07/03 08:38:17;;;;;;;0.70;0.70;;;;;;;22.79;52.08;97017.91;5012061;28;20077;-79
2022/07/03 08:40:45;;;;;;;0.60;0.60;;;;;;;22.85;54.08;97014.25;5012424;28;20045;-79
2022/07/03 08:43:13;;;;;;;2.28;0.50;;;;;;;22.89;53.18;97004.69;5012376;28;20404;-79
2022/07/03 08:45:41;;;;;;;0.68;0.60;;;;;;;22.92;52.55;97004.19;5014163;28;20121;-81
2022/07/03 08:48:19;;;;;;;1.88;0.60;;;;;;;22.97;51.76;97006.91;5013601;28;20081;-82
2022/07/03 08:50:48;;;;;;;2.60;0.60;;;;;;;23.01;49.72;97002.72;5013032;28;20100;-81
2022/07/03 08:53:18;;;;;;;2.05;0.60;;;;;;;23.08;51.20;97005.19;5013680;28;20057;-82
2022/07/03 08:55:46;;;;;;;0.65;0.65;;;;;;;23.14;50.17;97003.38;5013515;28;20100;-81
2022/07/03 08:58:14;;;;;;;2.35;0.45;;;;;;;23.18;49.32;97010.59;5013582;28;20084;-82
2022/07/03 09:00:42;;;;;;;0.40;0.40;;;;;;;23.23;51.63;97009.84;5013955;28;20042;-82
2022/07/03 09:03:12;;;;;;;1.02;0.65;;;;;;;23.28;50.84;97004.56;5013137;28;20092;-78
2022/07/03 09:05:40;;;;;;;0.40;0.40;;;;;;;23.32;51.99;97000.34;5012286;28;20050;-79
2022/07/03 09:08:09;;;;;;;2.35;0.40;;;;;;;23.36;50.16;96997.97;5011939;28;20120;-78
2022/07/03 09:10:45;;;;;;;1.00;0.47;;;;;;;23.39;46.83;97006.25;5016640;28;20068;-83
2022/07/03 09:13:23;;;;;;;0.30;0.22;;;;;;;23.42;46.25;96996.97;5018976;28;20046;-83
2022/07/03 09:16:00;;;;;;;0.60;0.60;;;;;;;23.50;47.75;96998.34;5025630;28;20057;-83
2022/07/03 09:18:41;;;;;;;0.57;0.40;;;;;;;23.56;45.99;96989.34;5022593;28;20065;-82
2022/07/03 09:21:13;;;;;;;0.93;0.40;;;;;;;23.61;45.71;96989.38;5025342;28;20061;-83
2022/07/03 09:27:52;;;;;;;0.40;0.38;;;;;;;23.80;45.58;96997.78;5022901;28;20104;-82
2022/07/03 09:33:09;;;;;;;1.30;0.40;;;;;;;23.88;46.90;96999.97;4979343;28;20046;-80
2022/07/03 09:35:37;;;;;;;1.45;0.40;;;;;;;23.90;47.38;96989.88;4985160;28;20138;-80
2022/07/03 09:38:05;;;;;;;1.98;0.95;;;;;;;23.92;47.09;96992.25;4984853;28;20047;-81
2022/07/03 09:40:50;;;;;;;0.60;0.60;;;;;;;23.97;44.54;96992.31;4983387;28;20058;-80
2022/07/03 09:43:28;;;;;;;0.75;0.43;;;;;;;24.05;44.40;96991.78;4966447;28;20061;-80
2022/07/03 09:45:59;;;;;;;1.60;0.60;;;;;;;24.12;44.98;96983.56;4962015;28;20055;-80
2022/07/03 09:48:30;;;;;;;0.50;0.47;;;;;;;24.19;45.97;96995.63;4960451;28;20055;-80
2022/07/03 09:51:23;;;;;;;2.47;0.85;;;;;;;24.25;44.92;96999.91;4962248;28;20067;-80
2022/07/03 09:53:57;;;;;;;0.45;0.40;;;;;;;24.30;43.74;96987.66;4963115;29;20051;-80
2022/07/03 09:56:27;;;;;;;0.65;0.50;;;;;;;24.37;43.01;96985.56;4962074;28;20047;-80
2022/07/03 09:59:09;;;;;;;0.50;0.40;;;;;;;24.44;44.31;96978.13;4966444;28;20069;-81
2022/07/03 10:01:39;;;;;;;2.15;0.60;;;;;;;24.50;44.40;96984.31;4959758;28;20058;-80
2022/07/03 10:07:19;;;;;;;0.20;0.20;;;;;;;24.63;42.38;96978.47;4960988;29;20529;-80
2022/07/03 10:09:47;;;;;;;0.63;0.35;;;;;;;24.65;43.28;96977.16;4961567;28;20039;-80
2022/07/03 10:12:16;;;;;;;1.50;0.50;;;;;;;24.68;40.43;96979.28;4960899;28;20114;-80
2022/07/03 10:14:47;;;;;;;2.20;0.70;;;;;;;24.72;41.81;96984.09;4959563;28;20054;-79
2022/07/03 10:17:15;;;;;;;1.75;0.43;;;;;;;24.78;40.56;96980.38;4958852;28;20097;-79
2022/07/03 10:19:51;;;;;;;1.20;0.45;;;;;;;24.84;40.92;96972.13;4958027;28;20547;-80
2022/07/03 10:22:22;;;;;;;1.10;0.73;;;;;;;24.91;40.64;96974.53;4966204;28;20479;-80
2022/07/03 10:24:51;;;;;;;0.60;0.60;;;;;;;24.96;43.36;96966.53;4987396;22;20477;-77
2022/07/03 10:27:20;;;;;;;0.43;0.43;;;;;;;24.99;40.71;96976.69;5010383;28;20130;-77
2022/07/03 10:29:53;;;;;;;0.90;0.60;;;;;;;25.04;41.29;96979.38;4995494;28;20046;-77
2022/07/03 10:32:20;;;;;;;0.40;0.40;;;;;;;25.09;41.56;96968.69;5001505;28;20057;-78
2022/07/03 10:34:48;;;;;;;0.80;0.38;;;;;;;25.15;41.35;96966.03;4998868;28;20047;-78
2022/07/03 10:37:20;;;;;;;1.85;0.75;;;;;;;25.22;41.31;96971.94;4996769;28;20054;-77
2022/07/03 10:44:45;;;;;;;2.50;0.50;;;;;;;25.26;39.18;96973.00;5008784;28;20051;-78
2022/07/03 10:45:35;;;;;;;2.65;0.50;;;;;;;25.39;40.52;96972.47;5014201;28;20100;-77
2022/07/03 10:48:03;;;;;;;2.13;0.85;;;;;;;25.43;39.73;96970.88;4997334;28;20053;-78
2022/07/03 10:50:36;;;;;;;5.28;0.50;;;;;;;25.48;39.63;96973.53;4996556;28;20491;-78
2022/07/03 10:53:22;;;;;;;1.30;0.40;;;;;;;25.54;39.72;96970.84;4996680;28;20090;-78
2022/07/03 11:01:46;;;;;;;7.78;1.40;;;;;;;25.68;48.06;96967.34;5278070;22;19980;-78
2022/07/03 11:04:14;;;;;;;4.60;1.17;;;;;;;25.67;48.36;96962.28;4995483;28;20454;-75
2022/07/03 11:07:10;;;;;;;1.67;1.00;;;;;;;25.69;44.79;96962.81;4981474;28;20066;-79
2022/07/03 11:09:40;;;;;;;1.65;0.43;;;;;;;25.72;41.18;96962.28;4981278;28;20042;-79
2022/07/03 11:50:42;;;;;;;6.30;0.50;;;;;;;26.63;35.18;96930.97;5039868;28;20036;-79
2022/07/03 11:57:14;;;;;;;1.15;0.25;;;;;;;26.79;35.21;96920.19;5017561;28;20061;-81
2022/07/03 11:59:42;;;;;;;0.30;0.17;;;;;;;26.81;36.50;96923.38;5019690;28;20030;-80
2022/07/03 12:02:10;;;;;;;0.25;0.25;;;;;;;26.82;36.62;96919.59;5018579;28;20041;-80
2022/07/03 12:04:40;;;;;;;0.32;0.10;;;;;;;26.84;35.17;96918.25;5019023;28;20034;-81
2022/07/03 12:07:09;;;;;;;0.47;0.40;;;;;;;26.87;34.44;96922.22;5018838;28;20042;-80
2022/07/03 12:09:38;;;;;;;1.02;0.40;;;;;;;26.88;33.96;96926.53;5011690;28;20039;-81
2022/07/03 12:12:08;;;;;;;0.20;0.20;;;;;;;26.90;33.62;96916.34;4994574;28;20658;-80
2022/07/03 12:14:37;;;;;;;0.88;0.10;;;;;;;26.95;34.09;96918.19;5004423;28;20023;-80
2022/07/03 12:17:06;;;;;;;0.25;0.10;;;;;;;26.98;35.14;96913.03;5018051;28;20420;-80
2022/07/03 12:19:35;;;;;;;0.32;0.10;;;;;;;26.99;34.91;96909.31;5017312;28;20050;-81
2022/07/03 12:22:03;;;;;;;0.25;0.25;;;;;;;27.00;34.09;96913.56;5018564;28;20065;-81
2022/07/03 12:24:31;;;;;;;0.47;0.10;;;;;;;27.04;33.08;96911.13;5017549;28;20033;-81
2022/07/03 12:27:06;;;;;;;0.55;0.20;;;;;;;27.05;33.91;96905.50;5018268;28;20057;-81
2022/07/03 12:29:35;;;;;;;0.20;0.20;;;;;;;27.08;32.46;96912.97;5017967;28;20038;-81
2022/07/03 12:32:10;;;;;;;0.38;0.20;;;;;;;27.12;30.97;96911.34;5018036;28;20057;-81
2022/07/03 12:34:39;;;;;;;0.30;0.30;;;;;;;27.13;34.11;96901.41;5016329;28;20046;-81
2022/07/03 12:37:07;;;;;;;0.20;0.20;;;;;;;27.15;32.25;96898.47;5016533;28;20061;-82
2022/07/03 12:43:24;;;;;;;0.45;0.30;;;;;;;27.20;33.17;96904.59;5018460;28;20037;-81
2022/07/03 12:45:51;;;;;;;1.23;0.30;;;;;;;27.22;32.57;96890.94;5014561;28;20065;-79
2022/07/03 12:48:19;;;;;;;0.65;0.28;;;;;;;27.24;34.53;96888.78;5017714;28;20046;-83
2022/07/03 12:50:48;;;;;;;1.92;0.38;;;;;;;27.25;34.59;96899.22;5018041;28;20038;-82
2022/07/03 12:53:27;;;;;;;0.40;0.32;;;;;;;27.27;34.91;96889.00;5017619;28;20034;-83
2022/07/03 12:55:54;;;;;;;1.98;0.30;;;;;;;27.30;35.77;96893.00;5017960;28;20298;-83
2022/07/03 13:01:29;;;;;;;0.47;0.30;;;;;;;27.31;35.19;96883.88;5017904;28;20061;-83
2022/07/03 13:03:58;;;;;;;0.90;0.30;;;;;;;27.30;35.85;96882.28;5018083;28;20065;-82
2022/07/03 13:06:25;;;;;;;1.08;0.70;;;;;;;27.29;35.79;96878.03;5018144;28;20030;-83
2022/07/03 13:08:56;;;;;;;0.68;0.30;;;;;;;27.29;33.97;96875.34;5017960;28;20037;-82
2022/07/03 13:11:29;;;;;;;2.38;0.40;;;;;;;27.27;35.00;96875.63;5017801;28;20050;-83
2022/07/03 13:14:11;;;;;;;2.08;0.40;;;;;;;27.26;34.64;96875.91;5018165;28;20069;-83
2022/07/03 13:16:49;;;;;;;1.55;0.65;;;;;;;27.26;33.78;96870.53;5018195;28;20034;-83
2022/07/03 13:19:18;;;;;;;0.55;0.32;;;;;;;27.27;33.97;96874.84;5017930;28;20062;-82
2022/07/03 13:21:47;;;;;;;0.98;0.20;;;;;;;27.29;37.11;96880.72;5017473;28;20054;-79
2022/07/03 13:24:16;;;;;;;0.40;0.20;;;;;;;27.28;34.29;96874.53;5017758;28;20042;-81
2022/07/03 13:26:44;;;;;;;1.10;0.20;;;;;;;27.27;34.21;96872.16;5017838;28;20050;-82
2022/07/03 13:29:21;;;;;;;0.40;0.10;;;;;;;27.27;34.06;96872.94;5017746;28;20050;-82
2022/07/03 13:31:49;;;;;;;0.47;0.38;;;;;;;27.27;34.49;96866.81;5017538;28;20065;-83
2022/07/03 13:34:18;;;;;;;0.55;0.30;;;;;;;27.29;35.75;96872.66;5017697;28;20038;-83
2022/07/03 13:36:48;;;;;;;0.57;0.38;;;;;;;27.30;33.66;96866.22;5018031;28;20065;-83
2022/07/03 13:39:16;;;;;;;0.50;0.30;;;;;;;27.32;35.15;96861.38;5017767;28;20098;-82
2022/07/03 13:41:45;;;;;;;1.77;0.30;;;;;;;27.31;34.30;96862.44;5009036;28;20038;-82
2022/07/03 13:44:12;;;;;;;0.73;0.28;;;;;;;27.30;34.41;96861.66;5009804;28;20046;-82
2022/07/03 13:46:41;;;;;;;0.80;0.50;;;;;;;27.30;36.41;96866.22;5016438;28;20034;-84
2022/07/03 13:49:16;;;;;;;0.32;0.32;;;;;;;27.30;37.28;96855.50;5000168;28;20041;-83
2022/07/03 13:51:44;;;;;;;1.65;0.60;;;;;;;27.29;34.55;96848.56;5016693;28;20061;-82
2022/07/03 13:54:12;;;;;;;0.88;0.52;;;;;;;27.30;36.99;96856.31;5017030;28;20034;-84
2022/07/03 13:56:39;;;;;;;0.65;0.30;;;;;;;27.33;35.13;96852.25;5010577;28;20022;-84
2022/07/03 13:59:07;;;;;;;1.20;0.20;;;;;;;27.35;37.73;96847.41;4997987;28;20031;-83
2022/07/03 14:01:35;;;;;;;1.73;0.40;;;;;;;27.33;35.06;96841.53;5014743;28;20065;-83
2022/07/03 14:04:04;;;;;;;1.48;0.30;;;;;;;27.32;35.74;96845.31;5017915;28;20042;-82
2022/07/03 14:06:32;;;;;;;0.88;0.50;;;;;;;27.35;34.10;96833.22;5020698;28;20035;-81
2022/07/03 14:09:00;;;;;;;1.50;0.50;;;;;;;27.36;35.15;96837.50;5020925;28;20034;-83
2022/07/03 14:11:27;;;;;;;0.93;0.50;;;;;;;27.36;34.93;96835.63;5020545;28;20049;-83
2022/07/03 14:13:55;;;;;;;1.58;1.00;;;;;;;27.35;34.48;96839.38;5020753;28;20050;-82
2022/07/03 14:16:23;;;;;;;2.28;0.35;;;;;;;27.34;34.55;96840.47;5020607;28;20049;-82
2022/07/03 14:18:51;;;;;;;1.60;0.60;;;;;;;27.32;32.90;96838.06;5018385;28;20034;-83
2022/07/03 14:21:20;;;;;;;1.35;0.43;;;;;;;27.32;34.73;96835.38;5018364;28;20034;-82
2022/07/03 14:23:47;;;;;;;0.75;0.30;;;;;;;27.35;33.18;96831.34;5020355;28;20057;-83
2022/07/03 14:26:15;;;;;;;2.83;0.50;;;;;;;27.36;34.49;96830.28;5020540;28;20058;-82
2022/07/03 14:34:13;;;;;;;2.47;0.40;;;;;;;27.40;33.74;96827.81;5020592;28;20102;-83
2022/07/03 14:36:42;;;;;;;0.80;0.38;;;;;;;27.39;33.67;96827.00;5013704;28;20035;-82
2022/07/03 14:39:13;;;;;;;1.98;0.40;;;;;;;27.38;34.39;96822.75;5015531;28;20069;-83
2022/07/03 14:41:42;;;;;;;0.90;0.50;;;;;;;27.37;34.78;96829.19;5020082;28;20038;-83
2022/07/03 14:44:10;;;;;;;2.25;0.52;;;;;;;27.36;37.57;96832.94;5020174;28;20039;-83
2022/07/03 14:46:37;;;;;;;3.03;0.40;;;;;;;27.37;35.71;96834.53;5020163;28;20039;-83
2022/07/03 14:49:05;;;;;;;0.32;0.25;;;;;;;27.35;34.03;96822.50;5020059;28;20046;-83
2022/07/03 14:51:33;;;;;;;1.02;0.20;;;;;;;27.35;33.24;96819.84;5019875;28;20069;-83
2022/07/03 14:54:02;;;;;;;1.75;0.40;;;;;;;27.35;37.51;96819.84;5019832;28;20034;-83
2022/07/03 14:56:30;;;;;;;0.57;0.30;;;;;;;27.32;35.22;96815.84;5019942;28;20038;-83
2022/07/03 14:59:07;;;;;;;2.40;0.60;;;;;;;27.30;40.17;96818.00;5019679;28;20045;-82
2022/07/03 15:01:37;;;;;;;0.90;0.55;;;;;;;27.27;35.87;96814.03;5019726;28;20046;-82
2022/07/03 15:04:10;;;;;;;1.33;0.55;;;;;;;27.27;39.88;96815.91;5019659;28;20054;-82
2022/07/03 15:06:37;;;;;;;1.83;0.30;;;;;;;27.26;35.58;96806.25;5019655;28;20986;-82
2022/07/03 15:09:08;;;;;;;0.60;0.30;;;;;;;27.24;36.09;96809.22;5019823;28;20057;-83
2022/07/03 15:14:44;;;;;;;3.80;0.57;;;;;;;27.23;34.01;96806.84;5019749;28;20081;-82
2022/07/03 15:17:16;;;;;;;2.65;0.90;;;;;;;27.26;34.76;96806.25;5019267;28;20038;-82
2022/07/03 15:19:44;;;;;;;1.60;0.60;;;;;;;27.27;36.06;96799.84;5019782;28;20082;-82
2022/07/03 15:22:16;;;;;;;1.55;0.50;;;;;;;27.28;35.30;96798.75;5018892;28;20074;-81
2022/07/03 15:24:48;;;;;;;0.70;0.50;;;;;;;27.28;38.58;96793.38;5019405;28;20054;-82
2022/07/03 15:27:19;;;;;;;2.35;0.28;;;;;;;27.28;35.95;96798.75;5019172;28;20076;-83
2022/07/03 15:30:02;;;;;;;0.70;0.70;;;;;;;27.28;38.10;96798.75;5019127;28;20029;-87
2022/07/03 15:32:33;;;;;;;2.65;0.40;;;;;;;27.29;38.45;96795.00;5019254;28;20054;-82
2022/07/03 15:35:01;;;;;;;0.43;0.38;;;;;;;27.26;35.88;96795.56;5019085;28;20034;-83
2022/07/03 15:37:44;;;;;;;1.08;0.43;;;;;;;27.24;34.55;96789.69;5019005;28;20065;-82
2022/07/03 15:40:19;;;;;;;1.63;0.45;;;;;;;27.23;35.86;96788.09;5019015;28;20094;-83
2022/07/03 15:43:05;;;;;;;1.17;0.30;;;;;;;27.23;39.08;96790.78;5019054;28;20058;-82
2022/07/03 15:45:42;;;;;;;0.50;0.40;;;;;;;27.21;37.47;96783.03;5018921;28;20073;-82
2022/07/03 15:48:20;;;;;;;0.52;0.52;;;;;;;27.22;37.82;96783.81;5018904;28;20038;-81
2022/07/03 15:50:54;;;;;;;0.85;0.50;;;;;;;27.20;40.68;96772.56;5018865;28;20050;-83
2022/07/03 15:53:26;;;;;;;3.15;0.57;;;;;;;27.18;39.27;96774.72;5018974;28;20038;-83
2022/07/03 15:56:03;;;;;;;2.67;0.43;;;;;;;27.16;37.75;96775.03;5018817;28;20045;-82
2022/07/03 15:58:33;;;;;;;0.85;0.30;;;;;;;27.16;36.35;96768.84;5009845;28;20038;-82
2022/07/03 16:03:59;;;;;;;0.63;0.30;;;;;;;27.15;36.38;96764.59;5009802;28;20037;-81
2022/07/03 16:06:33;;;;;;;0.98;0.30;;;;;;;27.15;36.09;96759.22;5018331;28;20038;-80
2022/07/03 16:09:01;;;;;;;2.30;0.52;;;;;;;27.16;34.55;96752.78;5018500;28;20065;-82
2022/07/03 16:11:30;;;;;;;1.08;0.35;;;;;;;27.18;36.59;96762.16;5018204;28;20026;-81
2022/07/03 16:14:02;;;;;;;1.63;0.47;;;;;;;27.20;39.23;96753.81;5018427;28;20038;-81
2022/07/03 16:16:30;;;;;;;1.30;0.60;;;;;;;27.23;36.45;96755.97;5018379;28;20038;-83
2022/07/03 16:19:01;;;;;;;2.92;0.60;;;;;;;27.23;36.46;96748.72;5018238;28;20034;-82
2022/07/03 16:21:30;;;;;;;1.75;0.40;;;;;;;27.23;35.27;96748.72;5018123;28;20042;-83
2022/07/03 16:23:59;;;;;;;0.93;0.43;;;;;;;27.22;37.17;96751.69;5018301;28;20045;-81
2022/07/03 16:26:29;;;;;;;1.00;0.50;;;;;;;27.21;37.50;96744.72;5048790;22;20056;-76
2022/07/03 16:28:58;;;;;;;0.75;0.45;;;;;;;27.23;35.26;96740.69;5019286;28;20046;-76
2022/07/03 16:31:32;;;;;;;1.08;0.55;;;;;;;27.26;36.69;96734.75;5012619;28;20045;-76
2022/07/03 16:34:04;;;;;;;0.55;0.30;;;;;;;27.28;36.76;96734.47;5025764;28;20113;-76
2022/07/03 16:36:35;;;;;;;1.70;0.50;;;;;;;27.28;35.36;96734.47;5012368;28;20078;-78
2022/07/03 16:39:05;;;;;;;1.10;0.40;;;;;;;27.32;35.48;96732.81;4994024;28;20138;-75
2022/07/03 16:41:41;;;;;;;1.90;1.17;;;;;;;27.32;35.84;96730.94;4992597;28;20050;-76
2022/07/03 16:44:10;;;;;;;0.98;0.40;;;;;;;27.34;34.00;96733.34;4992730;28;20077;-76
2022/07/03 16:46:41;;;;;;;1.35;0.40;;;;;;;27.35;37.82;96731.44;4992773;28;20056;-75
2022/07/03 16:49:10;;;;;;;0.47;0.30;;;;;;;27.34;35.41;96730.66;5011718;28;20053;-77
2022/07/03 16:51:42;;;;;;;0.60;0.28;;;;;;;27.33;34.75;96732.53;5019645;28;20053;-78
2022/07/03 16:54:11;;;;;;;2.80;0.57;;;;;;;27.35;35.08;96731.44;5014645;28;20104;-77
2022/07/03 16:56:39;;;;;;;1.23;0.55;;;;;;;27.37;34.85;96732.75;5013202;28;20458;-78
2022/07/03 16:59:11;;;;;;;0.73;0.30;;;;;;;27.38;38.91;96731.69;5013751;28;20140;-78
2022/07/03 17:01:41;;;;;;;0.82;0.40;;;;;;;27.40;38.53;96731.38;5013224;28;20053;-78
2022/07/03 17:04:09;;;;;;;0.75;0.47;;;;;;;27.40;38.91;96731.38;5017349;28;20049;-80
2022/07/03 17:06:38;;;;;;;4.40;0.60;;;;;;;27.38;35.30;96725.53;5009229;28;20137;-80
2022/07/03 17:09:07;;;;;;;0.57;0.43;;;;;;;27.36;36.38;96723.13;4995430;28;20058;-80
2022/07/03 17:11:35;;;;;;;2.30;0.70;;;;;;;27.35;37.44;96724.19;4996591;28;20104;-79
2022/07/03 17:14:03;;;;;;;1.27;0.52;;;;;;;27.38;33.57;96722.84;4995462;28;20073;-79
2022/07/03 17:16:38;;;;;;;2.67;0.70;;;;;;;27.40;36.14;96732.19;4999883;28;20105;-81
2022/07/03 17:19:08;;;;;;;1.25;0.52;;;;;;;27.43;37.14;96722.78;5014326;28;20073;-78
2022/07/03 17:21:42;;;;;;;1.13;0.47;;;;;;;27.44;40.73;96727.84;5013754;28;20045;-81
2022/07/03 17:24:11;;;;;;;1.58;0.50;;;;;;;27.42;41.55;96734.56;5017726;28;20659;-82
2022/07/03 17:26:42;;;;;;;1.25;0.60;;;;;;;27.38;35.92;96720.19;5014103;28;20116;-80
2022/07/03 17:29:17;;;;;;;3.42;0.93;;;;;;;27.35;41.85;96720.72;5012489;28;20046;-80
2022/07/03 17:31:47;;;;;;;2.60;0.40;;;;;;;27.34;41.34;96722.63;5004573;28;20078;-78
2022/07/03 17:34:16;;;;;;;3.30;0.40;;;;;;;27.33;38.57;96716.47;5003089;28;20138;-78
2022/07/03 17:36:44;;;;;;;1.60;0.40;;;;;;;27.31;35.88;96717.81;4996718;28;20147;-78
2022/07/03 17:39:13;;;;;;;3.00;0.85;;;;;;;27.32;38.30;96711.38;5006625;28;20066;-79
2022/07/03 17:41:41;;;;;;;1.00;0.50;;;;;;;27.35;37.56;96713.47;5001027;28;20105;-78
2022/07/03 17:44:10;;;;;;;3.33;0.82;;;;;;;27.36;38.04;96709.75;4996048;28;20050;-78
2022/07/03 17:46:39;;;;;;;2.83;0.40;;;;;;;27.38;38.16;96720.97;4999920;28;20088;-77
2022/07/03 17:49:10;;;;;;;0.70;0.50;;;;;;;27.41;38.91;96714.22;5002738;28;20062;-77
2022/07/03 17:51:37;;;;;;;3.78;1.02;;;;;;;27.42;35.84;96708.59;5014901;28;20084;-77
2022/07/03 17:54:05;;;;;;;3.13;0.60;;;;;;;27.43;36.63;96712.06;5000812;28;20113;-78
2022/07/03 17:56:35;;;;;;;4.65;0.75;;;;;;;27.43;36.54;96704.03;4997267;28;20480;-78
2022/07/03 17:59:06;;;;;;;1.48;0.63;;;;;;;27.43;39.58;96704.03;5000539;28;20108;-77